Time;durP1;ratioP1;P1;durP2;ratioP2;P2;SDS_P1;SDS_P2;PMS_P1;PMS_P2;Temp;Humidity;BMP_temperature;BMP_pressure;BME280_temperature;BME280_humidity;BME280_pressure;Samples;Min_cycle;Max_cycle;Signal;HPM_P1;HPM_P2
2022/10/01 00:01:55;;;;;;;10.20;5.07;;;;;;;4.60;100.00;96523.91;5061441;28;20083;-65
2022/10/01 00:04:21;;;;;;;6.65;4.78;;;;;;;4.67;100.00;96522.59;5061016;28;20040;-65
2022/10/01 00:06:46;;;;;;;9.30;5.38;;;;;;;4.54;100.00;96519.03;5061047;28;20396;-65
2022/10/01 00:09:12;;;;;;;10.95;5.00;;;;;;;4.54;100.00;96532.59;5057105;28;20040;-64
2022/10/01 00:11:37;;;;;;;9.70;5.00;;;;;;;4.57;100.00;96532.72;5052532;28;20032;-65
2022/10/01 00:14:03;;;;;;;8.98;4.72;;;;;;;4.75;100.00;96532.56;5059011;28;20036;-66
2022/10/01 00:16:30;;;;;;;8.88;4.80;;;;;;;4.83;100.00;96537.13;5059492;28;20051;-65
2022/10/01 00:18:56;;;;;;;7.72;4.70;;;;;;;4.87;100.00;96531.81;5059179;28;20453;-65
2022/10/01 00:21:25;;;;;;;8.90;4.80;;;;;;;4.86;100.00;96525.63;5049472;28;20260;-64
2022/10/01 00:24:03;;;;;;;8.05;5.13;;;;;;;4.79;100.00;96515.28;5060769;28;20048;-65
2022/10/01 00:26:34;;;;;;;9.40;5.30;;;;;;;4.55;100.00;96518.66;5045210;28;20044;-66
2022/10/01 00:29:02;;;;;;;8.82;5.57;;;;;;;4.16;100.00;96509.06;5064865;28;20131;-64
2022/10/01 00:31:29;;;;;;;9.95;5.63;;;;;;;3.88;100.00;96514.22;5050132;28;20044;-68
2022/10/01 00:33:57;;;;;;;13.20;6.03;;;;;;;3.83;100.00;96520.59;5060529;28;20113;-65
2022/10/01 00:36:24;;;;;;;14.10;6.57;;;;;;;3.82;100.00;96527.94;5056698;28;20072;-65
2022/10/01 00:38:49;;;;;;;10.50;6.47;;;;;;;3.78;100.00;96527.00;5059689;28;20190;-65
2022/10/01 00:41:17;;;;;;;12.45;6.72;;;;;;;3.74;100.00;96531.47;5051557;28;20440;-65
2022/10/01 00:43:45;;;;;;;12.38;6.50;;;;;;;3.85;100.00;96528.41;5076326;28;20040;-64
2022/10/01 00:46:20;;;;;;;12.15;6.55;;;;;;;4.03;100.00;96527.19;5075793;28;20059;-65
2022/10/01 00:48:57;;;;;;;11.73;6.55;;;;;;;4.24;100.00;96529.13;5077803;28;20133;-66
2022/10/01 00:51:25;;;;;;;9.73;6.40;;;;;;;4.32;100.00;96537.22;5064961;28;20260;-66
2022/10/01 00:53:53;;;;;;;8.07;5.72;;;;;;;4.43;100.00;96534.91;5076498;28;20073;-65
2022/10/01 00:56:18;;;;;;;9.27;5.22;;;;;;;4.34;100.00;96534.16;5051969;28;20301;-66
2022/10/01 00:58:44;;;;;;;10.90;5.50;;;;;;;4.18;100.00;96536.69;5072593;28;20400;-66
2022/10/01 01:01:10;;;;;;;8.35;5.22;;;;;;;4.04;100.00;96544.25;5073357;28;20032;-65
2022/10/01 01:03:36;;;;;;;7.85;4.50;;;;;;;4.01;100.00;96535.63;5076071;28;20047;-66
2022/10/01 01:06:02;;;;;;;7.85;4.68;;;;;;;4.08;100.00;96537.84;5079455;28;20080;-65
2022/10/01 01:08:28;;;;;;;7.47;4.32;;;;;;;4.18;100.00;96539.38;5067661;28;20056;-66
2022/10/01 01:11:36;;;;;;;8.55;4.57;;;;;;;4.24;100.00;96535.34;5081027;28;20154;-66
2022/10/01 01:14:14;;;;;;;8.90;4.28;;;;;;;4.14;100.00;96536.53;5075347;28;20140;-67
2022/10/01 01:16:57;;;;;;;8.82;4.30;;;;;;;3.98;100.00;96533.59;5074454;28;20040;-66
2022/10/01 01:19:54;;;;;;;7.55;5.00;;;;;;;3.87;100.00;96534.28;5072222;28;20627;-66
2022/10/01 01:22:23;;;;;;;8.23;4.65;;;;;;;3.89;100.00;96529.31;5074198;28;20139;-66
2022/10/01 01:24:54;;;;;;;7.72;4.90;;;;;;;3.77;100.00;96527.34;5069163;28;20039;-66
2022/10/01 01:27:30;;;;;;;6.18;4.35;;;;;;;3.95;100.00;96507.16;5067678;28;20123;-67
2022/10/01 01:30:14;;;;;;;7.45;4.53;;;;;;;4.04;100.00;96507.09;5071024;28;20094;-66
2022/10/01 01:32:52;;;;;;;10.35;4.60;;;;;;;3.96;100.00;96507.94;5076607;28;20487;-66
2022/10/01 01:35:30;;;;;;;12.50;5.07;;;;;;;4.04;100.00;96519.88;5072076;28;20036;-65
2022/10/01 01:38:00;;;;;;;11.48;5.05;;;;;;;4.13;100.00;96524.09;5078160;28;20524;-66
2022/10/01 01:40:29;;;;;;;8.77;5.32;;;;;;;4.21;100.00;96514.31;5072233;28;20086;-65
2022/10/01 01:42:57;;;;;;;9.07;5.17;;;;;;;4.28;100.00;96530.06;5077674;28;20047;-64
2022/10/01 01:45:27;;;;;;;6.60;4.00;;;;;;;4.28;100.00;96528.13;5066936;28;20283;-66
2022/10/01 01:47:54;;;;;;;5.38;3.95;;;;;;;4.22;100.00;96524.81;5078926;28;20119;-66
2022/10/01 01:50:24;;;;;;;7.35;4.30;;;;;;;4.00;100.00;96509.66;5070573;28;20496;-66
2022/10/01 01:52:52;;;;;;;10.43;4.35;;;;;;;3.79;100.00;96506.13;5075778;28;20036;-66
2022/10/01 01:55:20;;;;;;;5.75;4.03;;;;;;;3.74;100.00;96507.09;5065979;28;20036;-66
2022/10/01 01:57:46;;;;;;;7.07;4.22;;;;;;;3.78;100.00;96516.19;5072677;28;20044;-67
2022/10/01 02:00:13;;;;;;;7.97;4.68;;;;;;;3.89;100.00;96511.19;5064932;28;20047;-65
2022/10/01 02:02:42;;;;;;;8.38;4.47;;;;;;;3.96;100.00;96503.31;5077066;28;20039;-67
2022/10/01 02:05:15;;;;;;;5.47;4.23;;;;;;;4.07;100.00;96503.72;5070424;28;20040;-66
2022/10/01 02:07:59;;;;;;;5.88;4.38;;;;;;;4.17;100.00;96499.84;5079932;28;20237;-65
2022/10/01 02:10:28;;;;;;;6.40;4.05;;;;;;;4.25;100.00;96490.03;5083790;28;20198;-65
2022/10/01 02:13:25;;;;;;;5.35;3.90;;;;;;;4.12;100.00;96498.09;5073339;28;20102;-65
2022/10/01 02:16:09;;;;;;;6.95;4.30;;;;;;;3.99;100.00;96502.66;5076080;28;20560;-65
2022/10/01 02:19:05;;;;;;;7.30;5.15;;;;;;;3.74;100.00;96495.47;5078531;28;20043;-66
2022/10/01 02:21:45;;;;;;;8.02;4.80;;;;;;;3.62;100.00;96479.94;5069673;28;20048;-65
2022/10/01 02:24:23;;;;;;;6.45;4.78;;;;;;;3.63;100.00;96478.81;5070858;28;20051;-65
2022/10/01 02:26:51;;;;;;;9.02;5.53;;;;;;;3.67;100.00;96493.25;5077728;28;20081;-65
2022/10/01 02:29:20;;;;;;;7.15;5.25;;;;;;;3.90;100.00;96482.94;5069414;28;20155;-65
2022/10/01 02:31:48;;;;;;;8.95;5.20;;;;;;;3.95;100.00;96484.69;5072509;28;20515;-66
2022/10/01 02:34:16;;;;;;;5.97;4.45;;;;;;;3.81;100.00;96485.69;5068287;28;20044;-65
2022/10/01 02:36:44;;;;;;;7.13;4.70;;;;;;;3.73;100.00;96478.44;5083540;28;20046;-66
2022/10/01 02:39:13;;;;;;;8.80;5.03;;;;;;;3.81;100.00;96477.56;5065625;28;20105;-67
2022/10/01 02:41:42;;;;;;;8.52;4.65;;;;;;;3.91;100.00;96483.75;5068150;28;20044;-66
2022/10/01 02:44:13;;;;;;;5.78;4.30;;;;;;;3.99;100.00;96477.47;5068659;28;20078;-66
2022/10/01 02:46:55;;;;;;;9.02;5.18;;;;;;;3.97;100.00;96477.78;5077413;28;20038;-65
2022/10/01 02:49:20;;;;;;;9.63;5.53;;;;;;;3.99;100.00;96480.97;5071079;28;20064;-65
2022/10/01 02:51:52;;;;;;;7.63;4.45;;;;;;;3.86;100.00;96473.09;5073221;28;20047;-65
2022/10/01 02:54:32;;;;;;;9.60;5.60;;;;;;;3.68;100.00;96472.41;5069183;28;20050;-65
2022/10/01 02:59:42;;;;;;;7.47;4.72;;;;;;;3.67;100.00;96474.31;5074171;28;20047;-65
2022/10/01 03:02:08;;;;;;;9.95;4.70;;;;;;;3.69;100.00;96471.28;5065681;28;20397;-65
2022/10/01 03:04:33;;;;;;;7.07;4.78;;;;;;;3.64;100.00;96473.06;5075033;28;20051;-65
2022/10/01 03:07:02;;;;;;;8.60;5.13;;;;;;;3.87;100.00;96466.56;5069879;28;20083;-65
2022/10/01 03:09:32;;;;;;;9.20;4.90;;;;;;;3.93;100.00;96474.16;5069868;28;20387;-70
2022/10/01 03:11:58;;;;;;;7.50;5.25;;;;;;;3.87;100.00;96474.69;5073404;28;20636;-65
2022/10/01 03:14:24;;;;;;;7.20;4.68;;;;;;;3.97;100.00;96475.09;5070402;28;20243;-64
2022/10/01 03:16:50;;;;;;;7.47;4.60;;;;;;;4.06;100.00;96477.75;5077388;28;20047;-64
2022/10/01 03:19:16;;;;;;;9.18;5.55;;;;;;;4.04;100.00;96476.50;5071718;28;20089;-65
2022/10/01 03:21:41;;;;;;;12.40;5.18;;;;;;;3.88;100.00;96470.84;5072371;28;20044;-65
2022/10/01 03:24:07;;;;;;;6.55;4.55;;;;;;;3.94;100.00;96474.94;5066013;28;20066;-65
2022/10/01 03:26:34;;;;;;;7.90;4.82;;;;;;;3.93;100.00;96467.97;5075307;28;20131;-65
2022/10/01 03:29:00;;;;;;;7.20;5.00;;;;;;;3.99;100.00;96467.41;5071557;28;20416;-65
2022/10/01 03:31:26;;;;;;;9.95;4.80;;;;;;;4.08;100.00;96470.06;5065804;28;20050;-65
2022/10/01 03:33:51;;;;;;;9.15;4.85;;;;;;;4.24;100.00;96458.66;5074447;28;20055;-66
2022/10/01 03:36:16;;;;;;;5.63;4.07;;;;;;;4.35;100.00;96467.97;5068090;28;20040;-67
2022/10/01 03:38:42;;;;;;;5.40;4.25;;;;;;;4.33;100.00;96460.16;5069619;28;20054;-65
2022/10/01 03:41:07;;;;;;;7.57;4.35;;;;;;;4.11;100.00;96461.28;5065119;28;20398;-65
2022/10/01 03:43:34;;;;;;;6.43;4.90;;;;;;;3.76;100.00;96450.69;5070619;28;20511;-65
2022/10/01 03:46:00;;;;;;;6.88;4.97;;;;;;;3.70;100.00;96451.22;5075602;28;20864;-65
2022/10/01 03:48:26;;;;;;;7.63;5.28;;;;;;;3.70;100.00;96451.22;5068142;28;20440;-65
2022/10/01 03:50:56;;;;;;;8.40;6.03;;;;;;;3.81;100.00;96449.69;5072460;28;20043;-66
2022/10/01 03:53:23;;;;;;;9.35;5.97;;;;;;;3.95;100.00;96454.88;5069225;28;20614;-66
2022/10/01 03:55:49;;;;;;;13.35;6.20;;;;;;;4.13;100.00;96456.31;5081131;28;20107;-66
2022/10/01 03:58:15;;;;;;;10.50;6.30;;;;;;;4.25;100.00;96455.63;5079664;28;20063;-66
2022/10/01 04:00:41;;;;;;;8.40;5.97;;;;;;;4.33;100.00;96452.03;5070571;28;20416;-65
2022/10/01 04:03:06;;;;;;;7.18;5.28;;;;;;;4.42;100.00;96446.53;5065764;28;20028;-66
2022/10/01 04:05:31;;;;;;;11.65;5.25;;;;;;;4.52;100.00;96448.84;5076393;28;20054;-66
2022/10/01 04:07:58;;;;;;;7.53;5.30;;;;;;;4.52;100.00;96442.59;5067954;28;20048;-66
2022/10/01 04:10:24;;;;;;;7.07;5.55;;;;;;;4.44;100.00;96440.78;5066479;28;20040;-66
2022/10/01 04:12:54;;;;;;;8.57;4.82;;;;;;;4.47;100.00;96446.31;5085355;28;20047;-65
2022/10/01 04:15:22;;;;;;;10.38;5.78;;;;;;;4.55;100.00;96450.06;5073860;28;20127;-66
2022/10/01 04:17:48;;;;;;;7.88;5.25;;;;;;;4.58;100.00;96446.72;5077362;28;20032;-66
2022/10/01 04:20:14;;;;;;;6.00;4.80;;;;;;;4.53;100.00;96455.06;5067775;28;20132;-64
2022/10/01 04:22:41;;;;;;;8.80;4.80;;;;;;;4.55;100.00;96452.78;5067881;28;20704;-66
2022/10/01 04:25:09;;;;;;;8.23;5.50;;;;;;;4.33;100.00;96446.59;5062490;28;20162;-66
2022/10/01 04:27:36;;;;;;;8.93;6.00;;;;;;;4.29;100.00;96453.81;5068381;28;20044;-66
2022/10/01 04:30:03;;;;;;;8.32;5.22;;;;;;;4.25;100.00;96454.81;5069667;28;20128;-66
2022/10/01 04:32:28;;;;;;;10.15;5.85;;;;;;;4.24;100.00;96458.66;5066443;28;20056;-67
2022/10/01 04:34:54;;;;;;;7.72;5.22;;;;;;;4.25;100.00;96469.16;5070169;28;20040;-65
2022/10/01 04:37:21;;;;;;;15.15;5.22;;;;;;;4.36;100.00;96461.44;5064616;28;20044;-67
2022/10/01 04:39:46;;;;;;;10.65;6.10;;;;;;;4.31;100.00;96459.69;5067745;28;20089;-66
2022/10/01 04:42:12;;;;;;;9.48;5.03;;;;;;;4.20;100.00;96459.31;5067185;28;20434;-66
2022/10/01 04:44:38;;;;;;;6.50;4.57;;;;;;;4.04;100.00;96454.81;5075172;28;20044;-65
2022/10/01 04:47:04;;;;;;;7.65;5.25;;;;;;;3.84;100.00;96454.47;5062708;28;20036;-65
2022/10/01 04:49:31;;;;;;;7.78;5.03;;;;;;;3.82;100.00;96459.44;5070767;28;20397;-64
2022/10/01 04:51:57;;;;;;;7.35;5.03;;;;;;;3.99;100.00;96455.78;5068389;28;20047;-65
2022/10/01 04:54:23;;;;;;;10.55;5.13;;;;;;;4.07;100.00;96456.84;5065038;28;20048;-65
2022/10/01 04:56:48;;;;;;;6.97;4.90;;;;;;;4.14;100.00;96460.63;5068879;28;20197;-65
2022/10/01 04:59:14;;;;;;;7.28;4.88;;;;;;;4.20;100.00;96462.00;5064447;28;20045;-65
2022/10/01 05:01:40;;;;;;;8.05;5.28;;;;;;;4.33;100.00;96464.78;5068009;28;20136;-65
2022/10/01 05:04:07;;;;;;;8.65;5.07;;;;;;;4.24;100.00;96470.28;5063595;28;20036;-65
2022/10/01 05:06:33;;;;;;;7.82;4.75;;;;;;;4.14;100.00;96473.38;5070074;28;20033;-66
2022/10/01 05:08:58;;;;;;;10.82;5.20;;;;;;;4.15;100.00;96470.34;5066056;28;20462;-65
2022/10/01 05:11:24;;;;;;;11.68;5.70;;;;;;;4.15;100.00;96475.75;5062232;28;20971;-65
2022/10/01 05:13:49;;;;;;;11.82;7.28;;;;;;;4.12;100.00;96486.47;5064939;28;20040;-66
2022/10/01 05:16:14;;;;;;;10.75;6.47;;;;;;;4.26;100.00;96468.03;5059504;28;20047;-65
2022/10/01 05:18:40;;;;;;;12.65;6.07;;;;;;;4.28;100.00;96457.63;5064586;28;20035;-65
2022/10/01 05:21:06;;;;;;;8.32;6.03;;;;;;;4.20;100.00;96475.56;5064745;28;20127;-65
2022/10/01 05:23:33;;;;;;;14.90;6.03;;;;;;;4.14;100.00;96478.81;5066433;28;20626;-65
2022/10/01 05:25:59;;;;;;;10.38;6.60;;;;;;;4.09;100.00;96492.53;5064204;28;20051;-65
2022/10/01 05:28:26;;;;;;;11.73;6.85;;;;;;;4.24;100.00;96497.38;5059671;28;20593;-65
2022/10/01 05:30:52;;;;;;;10.20;6.60;;;;;;;4.20;100.00;96486.41;5071487;28;20039;-65
2022/10/01 05:33:18;;;;;;;11.93;7.85;;;;;;;4.24;100.00;96486.53;5067905;28;20047;-65
2022/10/01 05:35:43;;;;;;;16.33;9.88;;;;;;;4.05;100.00;96484.28;5071289;28;20044;-65
2022/10/01 05:38:09;;;;;;;11.82;7.75;;;;;;;3.97;100.00;96483.22;5067777;28;20063;-66
2022/10/01 05:40:35;;;;;;;10.95;7.38;;;;;;;3.88;100.00;96477.06;5073676;28;20040;-65
2022/10/01 05:43:01;;;;;;;15.88;8.02;;;;;;;3.89;100.00;96480.56;5071241;28;20470;-65
2022/10/01 05:45:29;;;;;;;11.68;8.65;;;;;;;3.90;100.00;96479.44;5067135;28;20725;-64
2022/10/01 05:47:58;;;;;;;22.58;9.65;;;;;;;3.92;100.00;96477.19;5071955;28;20062;-63
2022/10/01 05:50:24;;;;;;;28.38;10.32;;;;;;;3.97;100.00;96482.44;5062329;28;20495;-65
2022/10/01 05:52:52;;;;;;;17.60;11.13;;;;;;;4.05;100.00;96486.97;5071831;28;20043;-65
2022/10/01 05:55:18;;;;;;;18.25;11.80;;;;;;;4.12;100.00;96481.84;5068262;28;20044;-64
2022/10/01 05:57:44;;;;;;;20.10;12.80;;;;;;;4.20;100.00;96470.16;5083404;28;20074;-65
2022/10/01 06:00:12;;;;;;;23.90;13.15;;;;;;;4.29;100.00;96478.22;5083269;28;20044;-64
2022/10/01 06:02:37;;;;;;;22.05;12.20;;;;;;;4.45;100.00;96480.31;5082696;28;20039;-65
2022/10/01 06:05:03;;;;;;;20.48;12.15;;;;;;;4.74;100.00;96474.00;5072136;28;20099;-64
2022/10/01 06:07:31;;;;;;;21.35;12.88;;;;;;;5.15;100.00;96464.97;5066200;28;20054;-63
2022/10/01 06:09:57;;;;;;;25.65;15.35;;;;;;;5.47;100.00;96465.19;5072440;28;20048;-64
2022/10/01 06:12:23;;;;;;;25.38;15.48;;;;;;;5.68;100.00;96467.03;5075179;28;20061;-63
2022/10/01 06:14:48;;;;;;;27.88;15.40;;;;;;;5.78;100.00;96460.31;5080990;28;20052;-65
2022/10/01 06:17:13;;;;;;;25.35;14.32;;;;;;;5.85;100.00;96468.69;5073263;28;20032;-67
2022/10/01 06:19:39;;;;;;;27.80;14.63;;;;;;;5.80;100.00;96466.22;5083414;28;20089;-66
2022/10/01 06:22:04;;;;;;;23.08;14.73;;;;;;;5.85;100.00;96474.13;5081737;28;20227;-64
2022/10/01 06:24:30;;;;;;;17.60;12.45;;;;;;;5.82;100.00;96477.56;5083644;28;20048;-67
2022/10/01 06:26:56;;;;;;;19.77;14.05;;;;;;;5.79;100.00;96470.06;5079303;28;20477;-66
2022/10/01 06:29:22;;;;;;;19.35;11.52;;;;;;;5.66;100.00;96478.22;5068656;28;20054;-66
2022/10/01 06:31:47;;;;;;;21.75;12.73;;;;;;;5.70;100.00;96481.84;5067647;28;20044;-65
2022/10/01 06:34:12;;;;;;;27.23;16.27;;;;;;;5.61;100.00;96483.88;5060941;28;20055;-66
2022/10/01 06:36:38;;;;;;;17.23;11.18;;;;;;;5.74;100.00;96481.97;5074137;28;20062;-66
2022/10/01 06:39:03;;;;;;;18.88;12.95;;;;;;;5.87;100.00;96480.84;5073970;28;20036;-66
2022/10/01 06:41:29;;;;;;;15.45;12.25;;;;;;;6.08;100.00;96475.28;5076095;28;20066;-66
2022/10/01 06:43:54;;;;;;;18.77;12.77;;;;;;;6.26;100.00;96475.78;5072411;28;20040;-65
2022/10/01 06:46:19;;;;;;;19.05;12.45;;;;;;;6.43;100.00;96479.41;5065695;28;20038;-65
2022/10/01 06:48:45;;;;;;;17.38;12.02;;;;;;;6.71;100.00;96473.94;5076347;28;20127;-65
2022/10/01 06:51:10;;;;;;;15.65;10.73;;;;;;;6.89;100.00;96474.44;5080587;28;20042;-64
2022/10/01 06:53:36;;;;;;;18.52;12.02;;;;;;;7.01;100.00;96474.38;5079353;28;20111;-65
2022/10/01 06:56:06;;;;;;;20.35;12.38;;;;;;;7.26;100.00;96466.06;5075566;28;20036;-65
2022/10/01 06:58:31;;;;;;;;;;;;;;;7.49;100.00;96469.00;5072346;28;20066;-65
2022/10/01 07:01:02;;;;;;;18.02;12.55;;;;;;;7.66;100.00;96470.56;5075195;28;20361;-65
2022/10/01 07:03:29;;;;;;;23.42;13.32;;;;;;;7.82;100.00;96473.28;5068960;28;20047;-66
2022/10/01 07:06:01;;;;;;;18.48;12.60;;;;;;;7.91;100.00;96468.41;5068397;28;20048;-65
2022/10/01 07:08:26;;;;;;;18.08;12.50;;;;;;;8.04;100.00;96471.81;5069225;28;20044;-65
2022/10/01 07:10:52;;;;;;;23.40;13.18;;;;;;;8.15;100.00;96470.09;5075704;28;20043;-66
2022/10/01 07:13:19;;;;;;;22.23;14.27;;;;;;;8.19;100.00;96462.00;5069232;28;20064;-65
2022/10/01 07:15:45;;;;;;;23.02;15.15;;;;;;;8.26;100.00;96459.44;5072433;28;20510;-66
2022/10/01 07:18:11;;;;;;;20.55;12.43;;;;;;;8.29;100.00;96449.75;5068832;28;20050;-66
2022/10/01 07:20:40;;;;;;;18.30;12.32;;;;;;;8.29;100.00;96452.47;5071479;28;20067;-66
2022/10/01 07:23:14;;;;;;;17.70;12.05;;;;;;;8.31;100.00;96455.63;5071156;28;20489;-64
2022/10/01 07:25:41;;;;;;;19.52;12.48;;;;;;;8.46;100.00;96454.81;5067270;28;20074;-64
2022/10/01 07:28:14;;;;;;;19.73;13.10;;;;;;;8.57;100.00;96461.28;5067292;28;20484;-65
2022/10/01 07:30:41;;;;;;;19.35;12.77;;;;;;;8.70;100.00;96458.41;5069543;28;20500;-65
2022/10/01 07:33:07;;;;;;;17.75;11.82;;;;;;;8.79;100.00;96461.72;5071611;28;20040;-65
2022/10/01 07:35:34;;;;;;;19.23;10.60;;;;;;;8.92;100.00;96456.88;5068751;28;20135;-65
2022/10/01 07:38:06;;;;;;;14.13;9.65;;;;;;;8.92;100.00;96460.41;5073904;28;20055;-65
2022/10/01 07:40:31;;;;;;;13.02;9.93;;;;;;;9.06;100.00;96459.88;5082235;28;20531;-65
2022/10/01 07:42:57;;;;;;;13.57;10.07;;;;;;;9.12;100.00;96460.38;5072150;28;20036;-65
2022/10/01 07:45:24;;;;;;;10.95;8.13;;;;;;;9.25;100.00;96467.22;5065672;28;20577;-65
2022/10/01 07:47:57;;;;;;;12.93;7.55;;;;;;;9.39;100.00;96463.97;5072435;28;20078;-66
2022/10/01 07:50:24;;;;;;;10.98;8.00;;;;;;;9.52;100.00;96459.09;5068571;28;20523;-66
2022/10/01 07:52:55;;;;;;;9.80;7.53;;;;;;;9.61;100.00;96453.38;5073497;28;20054;-66
2022/10/01 07:55:21;;;;;;;9.43;7.78;;;;;;;9.65;100.00;96449.56;5070142;28;20040;-66
2022/10/01 07:57:54;;;;;;;9.30;5.90;;;;;;;9.98;100.00;96450.06;5074234;28;20028;-66
2022/10/01 08:00:21;;;;;;;9.15;6.25;;;;;;;10.10;100.00;96447.88;5068253;28;20044;-66
2022/10/01 08:02:49;;;;;;;11.95;6.50;;;;;;;10.18;100.00;96447.97;5073742;28;20043;-66
2022/10/01 08:05:16;;;;;;;9.57;5.38;;;;;;;10.16;100.00;96450.31;5069080;28;20067;-66
2022/10/01 08:07:41;;;;;;;9.25;7.28;;;;;;;10.16;100.00;96453.03;5075123;28;20431;-66
2022/10/01 08:10:07;;;;;;;8.57;6.53;;;;;;;10.21;100.00;96456.25;5071410;28;20127;-66
2022/10/01 08:12:32;;;;;;;9.38;6.43;;;;;;;10.30;100.00;96448.53;5070028;28;20533;-66
2022/10/01 08:14:57;;;;;;;10.68;6.57;;;;;;;10.32;100.00;96453.69;5071243;28;20040;-66
2022/10/01 08:17:23;;;;;;;8.52;5.72;;;;;;;10.36;100.00;96451.78;5072932;28;20377;-66
2022/10/01 08:19:49;;;;;;;7.18;4.13;;;;;;;10.32;100.00;96456.41;5071588;28;20052;-66
2022/10/01 08:22:15;;;;;;;8.93;6.00;;;;;;;10.32;100.00;96464.63;5070973;28;20043;-66
2022/10/01 08:24:40;;;;;;;7.57;4.50;;;;;;;10.25;100.00;96457.06;5071766;28;20051;-66
2022/10/01 08:27:06;;;;;;;8.63;6.45;;;;;;;10.32;100.00;96453.69;5065237;28;20051;-66
2022/10/01 08:29:32;;;;;;;8.60;5.35;;;;;;;10.34;100.00;96456.84;5072419;28;20051;-66
2022/10/01 08:31:58;;;;;;;6.00;3.95;;;;;;;10.37;100.00;96452.56;5071973;28;20485;-66
2022/10/01 08:34:23;;;;;;;6.53;4.70;;;;;;;10.46;100.00;96455.81;5061725;28;20059;-66
2022/10/01 08:36:52;;;;;;;8.15;4.75;;;;;;;10.22;100.00;96455.06;5071389;28;20529;-65
2022/10/01 08:39:19;;;;;;;6.63;5.15;;;;;;;10.05;100.00;96452.91;5061552;28;20040;-66
2022/10/01 08:42:04;;;;;;;6.30;4.75;;;;;;;10.06;100.00;96451.72;5071429;28;20044;-66
2022/10/01 08:44:40;;;;;;;6.47;4.50;;;;;;;10.17;100.00;96447.19;5067919;28;20143;-65
2022/10/01 08:47:36;;;;;;;6.50;5.13;;;;;;;10.01;100.00;96460.25;5061743;28;20148;-65
2022/10/01 08:50:16;;;;;;;7.88;5.90;;;;;;;9.89;100.00;96453.03;5055829;28;20750;-64
2022/10/01 08:52:54;;;;;;;9.68;6.00;;;;;;;9.85;100.00;96447.53;5069733;28;20055;-65
2022/10/01 08:55:25;;;;;;;11.60;6.43;;;;;;;9.88;100.00;96451.47;5061415;28;20508;-66
2022/10/01 08:57:57;;;;;;;13.13;6.30;;;;;;;9.82;100.00;96437.31;5072494;28;20062;-65
2022/10/01 09:00:23;;;;;;;7.40;5.25;;;;;;;9.83;100.00;96443.56;5072942;28;20120;-66
2022/10/01 09:02:51;;;;;;;8.45;4.90;;;;;;;9.86;100.00;96442.84;5068579;28;20135;-66
2022/10/01 09:05:50;;;;;;;5.72;4.03;;;;;;;9.90;100.00;96451.88;5070887;28;20040;-66
2022/10/01 09:08:43;;;;;;;7.37;4.93;;;;;;;9.96;100.00;96455.88;5064797;28;20048;-66
2022/10/01 09:11:11;;;;;;;7.40;5.15;;;;;;;9.99;100.00;96455.13;5082688;28;20286;-65
2022/10/01 09:13:56;;;;;;;7.35;5.07;;;;;;;10.09;100.00;96448.25;5079399;28;20040;-66
2022/10/01 09:16:35;;;;;;;6.97;4.63;;;;;;;10.16;100.00;96445.63;5069793;28;20052;-66
2022/10/01 09:19:33;;;;;;;7.45;5.43;;;;;;;10.20;100.00;96451.91;5071369;28;20044;-65
2022/10/01 09:22:09;;;;;;;5.70;4.07;;;;;;;10.24;100.00;96455.47;5057309;28;20036;-64
2022/10/01 09:24:55;;;;;;;5.07;3.88;;;;;;;10.37;100.00;96456.09;5077115;28;20044;-65
2022/10/01 09:27:26;;;;;;;6.00;3.80;;;;;;;10.51;100.00;96461.75;5039245;28;20072;-65
2022/10/01 09:29:59;;;;;;;5.47;4.22;;;;;;;10.59;100.00;96456.34;5061827;28;20481;-66
2022/10/01 09:32:36;;;;;;;6.07;4.07;;;;;;;10.64;100.00;96459.56;5060179;28;20044;-66
2022/10/01 09:35:14;;;;;;;5.78;4.78;;;;;;;10.59;100.00;96459.09;5062859;28;20367;-64
2022/10/01 09:38:21;;;;;;;8.57;4.38;;;;;;;10.49;100.00;96461.31;5063621;28;20049;-65
2022/10/01 09:40:53;;;;;;;6.97;3.90;;;;;;;10.63;100.00;96451.72;5052843;28;20140;-65
2022/10/01 09:43:22;;;;;;;9.15;4.53;;;;;;;10.63;100.00;96440.78;5059342;28;20048;-66
2022/10/01 09:45:51;;;;;;;5.95;4.32;;;;;;;10.68;100.00;96445.91;5063787;28;20153;-65
2022/10/01 09:48:21;;;;;;;10.50;4.28;;;;;;;10.71;100.00;96456.09;5055796;28;20045;-68
2022/10/01 09:50:57;;;;;;;12.65;6.85;;;;;;;10.78;100.00;96445.22;5061368;28;20611;-65
2022/10/01 09:53:45;;;;;;;21.48;16.33;;;;;;;10.71;100.00;96453.38;5059596;28;20530;-66
2022/10/01 09:56:17;;;;;;;12.85;9.80;;;;;;;10.76;100.00;96457.75;5057897;28;20056;-65
2022/10/01 09:58:51;;;;;;;8.65;6.13;;;;;;;10.80;100.00;96470.31;5055303;28;20037;-65
2022/10/01 10:01:23;;;;;;;6.47;4.53;;;;;;;10.84;100.00;96470.34;5060278;28;20040;-65
2022/10/01 10:03:53;;;;;;;5.18;4.13;;;;;;;10.87;100.00;96464.91;5065089;28;20189;-64
2022/10/01 10:06:27;;;;;;;5.65;4.00;;;;;;;10.83;100.00;96468.78;5057345;28;20127;-67
2022/10/01 10:08:55;;;;;;;9.88;4.97;;;;;;;10.85;100.00;96466.44;5065289;28;20048;-66
2022/10/01 10:11:27;;;;;;;6.25;4.95;;;;;;;10.83;100.00;96464.09;5057830;28;20064;-66
2022/10/01 10:13:59;;;;;;;7.15;5.00;;;;;;;10.86;100.00;96468.03;5054354;28;20049;-65
2022/10/01 10:16:34;;;;;;;5.95;4.72;;;;;;;10.84;100.00;96462.94;5056950;28;20040;-66
2022/10/01 10:19:14;;;;;;;8.48;5.10;;;;;;;10.85;100.00;96460.97;5063298;28;20052;-66
2022/10/01 10:21:52;;;;;;;6.03;4.03;;;;;;;10.89;100.00;96464.53;5055697;28;20129;-65
2022/10/01 10:24:31;;;;;;;5.75;3.90;;;;;;;10.80;100.00;96472.25;5057441;28;20044;-64
2022/10/01 10:26:59;;;;;;;6.40;4.38;;;;;;;10.80;100.00;96464.81;5054617;28;20118;-64
2022/10/01 10:29:33;;;;;;;5.82;4.13;;;;;;;10.80;100.00;96475.78;5058892;28;20040;-66
2022/10/01 10:32:05;;;;;;;6.10;4.00;;;;;;;10.89;100.00;96476.31;5063608;28;20045;-64
2022/10/01 10:34:32;;;;;;;5.55;4.00;;;;;;;10.83;100.00;96477.00;5060944;28;20048;-65
2022/10/01 10:37:04;;;;;;;6.45;4.13;;;;;;;11.02;100.00;96489.72;5062758;28;20040;-66
2022/10/01 10:39:41;;;;;;;6.93;4.78;;;;;;;10.97;100.00;96484.59;5060867;28;20036;-67
2022/10/01 10:42:12;;;;;;;12.10;10.73;;;;;;;10.90;100.00;96477.88;5060207;28;20073;-64
2022/10/01 10:44:42;;;;;;;11.15;9.95;;;;;;;11.00;100.00;96481.09;5067362;28;20056;-66
2022/10/01 10:47:13;;;;;;;;;;;;;;;10.83;100.00;96480.53;5052083;28;20127;-66
2022/10/01 10:49:47;;;;;;;5.18;3.33;;;;;;;10.55;100.00;96486.44;5050001;28;19928;-66
2022/10/01 10:52:28;;;;;;;5.38;3.58;;;;;;;10.58;100.00;96484.91;5055680;28;20051;-65
2022/10/01 10:54:55;;;;;;;5.00;2.95;;;;;;;10.61;100.00;96492.38;5058432;28;20078;-65
2022/10/01 10:57:29;;;;;;;7.45;3.80;;;;;;;10.56;100.00;96492.72;5051774;28;20033;-66
2022/10/01 11:00:11;;;;;;;6.60;4.50;;;;;;;10.47;100.00;96482.81;5057821;28;20044;-65
2022/10/01 11:02:39;;;;;;;9.02;5.60;;;;;;;10.43;100.00;96497.63;5061928;28;20074;-65
2022/10/01 11:05:20;;;;;;;5.53;3.22;;;;;;;10.43;100.00;96509.38;5057836;28;20070;-64
2022/10/01 11:07:47;;;;;;;4.97;3.83;;;;;;;10.48;100.00;96500.06;5069033;28;20044;-66
2022/10/01 11:10:24;;;;;;;4.80;2.60;;;;;;;10.49;100.00;96493.41;5060077;28;20032;-66
2022/10/01 11:13:17;;;;;;;4.32;2.90;;;;;;;10.53;100.00;96486.00;5061390;28;20459;-65
2022/10/01 11:16:16;;;;;;;6.25;4.00;;;;;;;10.42;100.00;96485.09;5062021;28;20093;-65
2022/10/01 11:18:57;;;;;;;11.52;4.43;;;;;;;10.26;100.00;96485.22;5038557;28;20507;-66
2022/10/01 11:21:45;;;;;;;6.43;4.20;;;;;;;10.32;100.00;96495.53;5050277;28;20079;-65
2022/10/01 11:24:46;;;;;;;7.70;4.53;;;;;;;10.42;100.00;96509.72;5057368;28;20051;-65
2022/10/01 11:27:41;;;;;;;9.25;4.53;;;;;;;10.28;100.00;96510.28;5040475;28;20142;-66
2022/10/01 11:30:13;;;;;;;9.70;3.72;;;;;;;10.33;100.00;96518.22;5035555;28;20055;-66
2022/10/01 11:33:03;;;;;;;9.65;5.05;;;;;;;10.39;100.00;96519.47;5061996;28;20044;-67
2022/10/01 11:36:20;;;;;;;4.65;3.22;;;;;;;10.43;100.00;96505.84;5057979;28;20049;-66
2022/10/01 11:38:48;;;;;;;5.20;3.63;;;;;;;10.40;100.00;96510.09;5040297;28;20584;-67
2022/10/01 11:41:20;;;;;;;7.70;4.05;;;;;;;10.50;100.00;96516.91;5057349;28;20048;-67
2022/10/01 11:43:52;;;;;;;5.60;3.85;;;;;;;10.46;100.00;96502.34;5062067;28;20233;-67
2022/10/01 11:46:34;;;;;;;6.45;4.45;;;;;;;10.38;100.00;96512.41;5055092;28;20040;-66